sensor_id;sensor_type;location;lat;lon;timestamp;P1;durP1;ratioP1;P2;durP2;ratioP2
21213;SDS011;10764;50.850;2.904;2024-02-15T00:01:22;1192.03;;;999.90;;
21213;SDS011;10764;50.850;2.904;2024-02-15T00:03:49;1205.93;;;999.90;;
21213;SDS011;10764;50.850;2.904;2024-02-15T00:06:16;1211.35;;;999.90;;
21213;SDS011;10764;50.850;2.904;2024-02-15T00:08:44;1188.60;;;999.90;;
21213;SDS011;10764;50.850;2.904;2024-02-15T00:11:11;1188.70;;;999.90;;
21213;SDS011;10764;50.850;2.904;2024-02-15T00:13:40;1191.95;;;999.90;;
21213;SDS011;10764;50.850;2.904;2024-02-15T00:16:07;1188.90;;;999.90;;
21213;SDS011;10764;50.850;2.904;2024-02-15T00:18:35;1260.75;;;999.90;;
21213;SDS011;10764;50.850;2.904;2024-02-15T00:21:03;1230.30;;;999.90;;
21213;SDS011;10764;50.850;2.904;2024-02-15T00:23:30;1232.03;;;999.90;;
21213;SDS011;10764;50.850;2.904;2024-02-15T00:25:58;1235.97;;;999.90;;
21213;SDS011;10764;50.850;2.904;2024-02-15T00:28:26;1233.07;;;999.90;;
21213;SDS011;10764;50.850;2.904;2024-02-15T00:30:54;1240.07;;;999.90;;
21213;SDS011;10764;50.850;2.904;2024-02-15T00:33:21;1244.80;;;999.90;;
21213;SDS011;10764;50.850;2.904;2024-02-15T00:35:49;1242.78;;;999.90;;
21213;SDS011;10764;50.850;2.904;2024-02-15T00:38:16;1241.15;;;999.90;;
21213;SDS011;10764;50.850;2.904;2024-02-15T00:40:44;1240.72;;;999.90;;
21213;SDS011;10764;50.850;2.904;2024-02-15T00:43:12;1247.35;;;999.90;;
21213;SDS011;10764;50.850;2.904;2024-02-15T00:45:39;1247.80;;;999.90;;
21213;SDS011;10764;50.850;2.904;2024-02-15T00:48:07;1245.90;;;999.90;;
21213;SDS011;10764;50.850;2.904;2024-02-15T00:50:34;1241.57;;;999.90;;
21213;SDS011;10764;50.850;2.904;2024-02-15T00:53:02;1228.57;;;999.90;;
21213;SDS011;10764;50.850;2.904;2024-02-15T00:55:29;1243.15;;;999.90;;
21213;SDS011;10764;50.850;2.904;2024-02-15T00:57:57;1244.10;;;999.90;;
21213;SDS011;10764;50.850;2.904;2024-02-15T01:00:24;1247.32;;;999.90;;
21213;SDS011;10764;50.850;2.904;2024-02-15T01:02:52;1249.57;;;999.90;;
21213;SDS011;10764;50.850;2.904;2024-02-15T01:05:19;1246.22;;;999.90;;
21213;SDS011;10764;50.850;2.904;2024-02-15T01:07:48;1266.40;;;999.90;;
21213;SDS011;10764;50.850;2.904;2024-02-15T01:10:15;1268.20;;;999.90;;
21213;SDS011;10764;50.850;2.904;2024-02-15T01:12:43;1273.10;;;999.90;;
21213;SDS011;10764;50.850;2.904;2024-02-15T01:15:11;1276.07;;;999.90;;
21213;SDS011;10764;50.850;2.904;2024-02-15T01:17:38;1278.45;;;999.90;;
21213;SDS011;10764;50.850;2.904;2024-02-15T01:20:06;1275.35;;;999.90;;
21213;SDS011;10764;50.850;2.904;2024-02-15T01:22:33;1277.18;;;999.90;;
21213;SDS011;10764;50.850;2.904;2024-02-15T01:25:01;1281.53;;;999.90;;
21213;SDS011;10764;50.850;2.904;2024-02-15T01:27:29;1275.72;;;999.90;;
21213;SDS011;10764;50.850;2.904;2024-02-15T01:29:56;1283.40;;;999.90;;
21213;SDS011;10764;50.850;2.904;2024-02-15T01:32:24;1290.38;;;999.90;;
21213;SDS011;10764;50.850;2.904;2024-02-15T01:34:52;1291.05;;;999.90;;
21213;SDS011;10764;50.850;2.904;2024-02-15T01:37:21;1288.30;;;999.90;;
21213;SDS011;10764;50.850;2.904;2024-02-15T01:39:49;1300.78;;;999.90;;
21213;SDS011;10764;50.850;2.904;2024-02-15T01:42:17;1299.88;;;999.90;;
21213;SDS011;10764;50.850;2.904;2024-02-15T01:44:45;1314.97;;;999.90;;
21213;SDS011;10764;50.850;2.904;2024-02-15T01:47:14;1338.00;;;999.90;;
21213;SDS011;10764;50.850;2.904;2024-02-15T01:49:42;1262.93;;;999.90;;
21213;SDS011;10764;50.850;2.904;2024-02-15T01:52:09;1266.22;;;999.90;;
21213;SDS011;10764;50.850;2.904;2024-02-15T01:54:37;1262.68;;;999.90;;
21213;SDS011;10764;50.850;2.904;2024-02-15T01:57:05;1262.88;;;999.90;;
21213;SDS011;10764;50.850;2.904;2024-02-15T01:59:33;1258.60;;;999.90;;
21213;SDS011;10764;50.850;2.904;2024-02-15T02:02:00;1264.03;;;999.90;;
21213;SDS011;10764;50.850;2.904;2024-02-15T02:04:29;1264.53;;;999.90;;
21213;SDS011;10764;50.850;2.904;2024-02-15T02:06:57;1262.45;;;999.90;;
21213;SDS011;10764;50.850;2.904;2024-02-15T02:09:25;1263.88;;;999.90;;
21213;SDS011;10764;50.850;2.904;2024-02-15T02:11:52;1259.05;;;999.90;;
21213;SDS011;10764;50.850;2.904;2024-02-15T02:14:20;1259.68;;;999.90;;
21213;SDS011;10764;50.850;2.904;2024-02-15T02:16:47;1260.07;;;999.90;;
21213;SDS011;10764;50.850;2.904;2024-02-15T02:19:16;1261.75;;;999.90;;
21213;SDS011;10764;50.850;2.904;2024-02-15T02:21:44;1261.50;;;999.90;;
21213;SDS011;10764;50.850;2.904;2024-02-15T02:24:14;1265.72;;;999.90;;
21213;SDS011;10764;50.850;2.904;2024-02-15T02:26:48;1260.50;;;999.90;;
21213;SDS011;10764;50.850;2.904;2024-02-15T02:29:16;1260.50;;;999.90;;
21213;SDS011;10764;50.850;2.904;2024-02-15T02:31:43;1263.32;;;999.90;;
21213;SDS011;10764;50.850;2.904;2024-02-15T02:34:11;1261.28;;;999.90;;
21213;SDS011;10764;50.850;2.904;2024-02-15T02:36:43;1260.45;;;999.90;;
21213;SDS011;10764;50.850;2.904;2024-02-15T02:39:10;1266.43;;;999.90;;
21213;SDS011;10764;50.850;2.904;2024-02-15T02:41:38;1265.63;;;999.90;;
21213;SDS011;10764;50.850;2.904;2024-02-15T02:44:05;1268.95;;;999.90;;
21213;SDS011;10764;50.850;2.904;2024-02-15T02:46:32;1263.03;;;999.90;;
21213;SDS011;10764;50.850;2.904;2024-02-15T02:49:00;1267.93;;;999.90;;
21213;SDS011;10764;50.850;2.904;2024-02-15T02:51:27;1274.70;;;999.90;;
21213;SDS011;10764;50.850;2.904;2024-02-15T02:53:55;1264.25;;;999.90;;
21213;SDS011;10764;50.850;2.904;2024-02-15T02:56:22;1260.00;;;999.90;;
21213;SDS011;10764;50.850;2.904;2024-02-15T02:58:50;1264.30;;;999.90;;
21213;SDS011;10764;50.850;2.904;2024-02-15T03:01:19;1261.95;;;999.90;;
21213;SDS011;10764;50.850;2.904;2024-02-15T03:03:46;1262.38;;;999.90;;
21213;SDS011;10764;50.850;2.904;2024-02-15T03:06:14;1262.53;;;999.90;;
21213;SDS011;10764;50.850;2.904;2024-02-15T03:08:41;1259.32;;;999.90;;
21213;SDS011;10764;50.850;2.904;2024-02-15T03:11:09;1263.78;;;999.90;;
21213;SDS011;10764;50.850;2.904;2024-02-15T03:13:36;1265.78;;;999.90;;
21213;SDS011;10764;50.850;2.904;2024-02-15T03:16:03;1262.22;;;999.90;;
21213;SDS011;10764;50.850;2.904;2024-02-15T03:18:31;1262.00;;;999.90;;
21213;SDS011;10764;50.850;2.904;2024-02-15T03:20:59;1266.13;;;999.90;;
21213;SDS011;10764;50.850;2.904;2024-02-15T03:23:27;1264.45;;;999.90;;
21213;SDS011;10764;50.850;2.904;2024-02-15T03:25:55;1266.50;;;999.90;;
21213;SDS011;10764;50.850;2.904;2024-02-15T03:28:22;1267.47;;;999.90;;
21213;SDS011;10764;50.850;2.904;2024-02-15T03:30:50;1267.70;;;999.90;;
21213;SDS011;10764;50.850;2.904;2024-02-15T03:33:19;1264.07;;;999.90;;
21213;SDS011;10764;50.850;2.904;2024-02-15T03:35:53;1268.47;;;999.90;;
21213;SDS011;10764;50.850;2.904;2024-02-15T03:38:20;1264.85;;;999.90;;
21213;SDS011;10764;50.850;2.904;2024-02-15T03:40:47;1261.50;;;999.90;;
21213;SDS011;10764;50.850;2.904;2024-02-15T03:43:15;1271.53;;;999.90;;
21213;SDS011;10764;50.850;2.904;2024-02-15T03:45:43;1262.20;;;999.90;;
21213;SDS011;10764;50.850;2.904;2024-02-15T03:48:11;1263.05;;;999.90;;
21213;SDS011;10764;50.850;2.904;2024-02-15T03:50:38;1263.57;;;999.90;;
21213;SDS011;10764;50.850;2.904;2024-02-15T03:53:05;1267.93;;;999.90;;
21213;SDS011;10764;50.850;2.904;2024-02-15T03:55:34;1268.68;;;999.90;;
21213;SDS011;10764;50.850;2.904;2024-02-15T03:58:02;1270.82;;;999.90;;
21213;SDS011;10764;50.850;2.904;2024-02-15T04:00:30;1266.88;;;999.90;;
21213;SDS011;10764;50.850;2.904;2024-02-15T04:02:57;1266.80;;;999.90;;
21213;SDS011;10764;50.850;2.904;2024-02-15T04:05:25;1265.85;;;999.90;;
21213;SDS011;10764;50.850;2.904;2024-02-15T04:07:52;1267.90;;;999.90;;
21213;SDS011;10764;50.850;2.904;2024-02-15T04:10:20;1267.88;;;999.90;;
21213;SDS011;10764;50.850;2.904;2024-02-15T04:12:47;1269.30;;;999.90;;
21213;SDS011;10764;50.850;2.904;2024-02-15T04:15:14;1267.53;;;999.90;;
21213;SDS011;10764;50.850;2.904;2024-02-15T04:17:44;1270.18;;;999.90;;
21213;SDS011;10764;50.850;2.904;2024-02-15T04:20:12;1263.75;;;999.90;;
21213;SDS011;10764;50.850;2.904;2024-02-15T04:22:42;1268.03;;;999.90;;
21213;SDS011;10764;50.850;2.904;2024-02-15T04:25:10;1269.20;;;999.90;;
21213;SDS011;10764;50.850;2.904;2024-02-15T04:27:44;1268.60;;;999.90;;
21213;SDS011;10764;50.850;2.904;2024-02-15T04:30:16;1271.00;;;999.90;;
21213;SDS011;10764;50.850;2.904;2024-02-15T04:32:44;1268.20;;;999.90;;
21213;SDS011;10764;50.850;2.904;2024-02-15T04:35:11;1270.18;;;999.90;;
21213;SDS011;10764;50.850;2.904;2024-02-15T04:37:41;1266.83;;;999.90;;
21213;SDS011;10764;50.850;2.904;2024-02-15T04:40:08;1270.75;;;999.90;;
21213;SDS011;10764;50.850;2.904;2024-02-15T04:42:37;1271.30;;;999.90;;
21213;SDS011;10764;50.850;2.904;2024-02-15T04:45:07;1273.57;;;999.90;;
21213;SDS011;10764;50.850;2.904;2024-02-15T04:47:36;1272.88;;;999.90;;
21213;SDS011;10764;50.850;2.904;2024-02-15T04:50:05;1268.37;;;999.90;;
21213;SDS011;10764;50.850;2.904;2024-02-15T04:52:33;1270.18;;;999.90;;
21213;SDS011;10764;50.850;2.904;2024-02-15T04:55:01;1276.70;;;999.90;;
21213;SDS011;10764;50.850;2.904;2024-02-15T04:57:31;1276.05;;;999.90;;
21213;SDS011;10764;50.850;2.904;2024-02-15T05:00:00;1274.53;;;999.90;;
21213;SDS011;10764;50.850;2.904;2024-02-15T05:02:28;1274.90;;;999.90;;
21213;SDS011;10764;50.850;2.904;2024-02-15T05:04:56;1274.05;;;999.90;;
21213;SDS011;10764;50.850;2.904;2024-02-15T05:07:23;1273.07;;;999.90;;
21213;SDS011;10764;50.850;2.904;2024-02-15T05:09:51;1278.43;;;999.90;;
21213;SDS011;10764;50.850;2.904;2024-02-15T05:12:22;1277.55;;;999.90;;
21213;SDS011;10764;50.850;2.904;2024-02-15T05:14:52;1278.32;;;999.90;;
21213;SDS011;10764;50.850;2.904;2024-02-15T05:17:20;1276.78;;;999.90;;
21213;SDS011;10764;50.850;2.904;2024-02-15T05:19:51;1281.38;;;999.90;;
21213;SDS011;10764;50.850;2.904;2024-02-15T05:22:18;1278.15;;;999.90;;
21213;SDS011;10764;50.850;2.904;2024-02-15T05:24:46;1281.50;;;999.90;;
21213;SDS011;10764;50.850;2.904;2024-02-15T05:27:13;1278.78;;;999.90;;
21213;SDS011;10764;50.850;2.904;2024-02-15T05:29:41;1278.82;;;999.90;;
21213;SDS011;10764;50.850;2.904;2024-02-15T05:32:09;1281.55;;;999.90;;
21213;SDS011;10764;50.850;2.904;2024-02-15T05:34:37;1280.57;;;999.90;;
21213;SDS011;10764;50.850;2.904;2024-02-15T05:37:06;1281.10;;;999.90;;
21213;SDS011;10764;50.850;2.904;2024-02-15T05:39:34;1281.50;;;999.90;;
21213;SDS011;10764;50.850;2.904;2024-02-15T05:42:01;1280.05;;;999.90;;
21213;SDS011;10764;50.850;2.904;2024-02-15T05:44:29;1277.50;;;999.90;;
21213;SDS011;10764;50.850;2.904;2024-02-15T05:46:56;1280.13;;;999.90;;
21213;SDS011;10764;50.850;2.904;2024-02-15T05:49:24;1279.93;;;999.90;;
21213;SDS011;10764;50.850;2.904;2024-02-15T05:51:51;1278.20;;;999.90;;
21213;SDS011;10764;50.850;2.904;2024-02-15T05:54:20;1279.30;;;999.90;;
21213;SDS011;10764;50.850;2.904;2024-02-15T05:56:49;1284.00;;;999.90;;
21213;SDS011;10764;50.850;2.904;2024-02-15T05:59:18;1281.57;;;999.90;;
21213;SDS011;10764;50.850;2.904;2024-02-15T06:01:46;1283.67;;;999.90;;
21213;SDS011;10764;50.850;2.904;2024-02-15T06:04:16;1280.67;;;999.90;;
21213;SDS011;10764;50.850;2.904;2024-02-15T06:06:44;1283.28;;;999.90;;
21213;SDS011;10764;50.850;2.904;2024-02-15T06:09:16;1280.20;;;999.90;;
21213;SDS011;10764;50.850;2.904;2024-02-15T06:11:43;1284.75;;;999.90;;
21213;SDS011;10764;50.850;2.904;2024-02-15T06:14:12;1280.20;;;999.90;;
21213;SDS011;10764;50.850;2.904;2024-02-15T06:16:43;1280.50;;;999.90;;
21213;SDS011;10764;50.850;2.904;2024-02-15T06:19:10;1277.15;;;999.90;;
21213;SDS011;10764;50.850;2.904;2024-02-15T06:21:38;1277.85;;;999.90;;
21213;SDS011;10764;50.850;2.904;2024-02-15T06:24:05;1279.85;;;999.90;;
21213;SDS011;10764;50.850;2.904;2024-02-15T06:26:33;1277.32;;;999.90;;
21213;SDS011;10764;50.850;2.904;2024-02-15T06:29:00;1279.47;;;999.90;;
21213;SDS011;10764;50.850;2.904;2024-02-15T06:31:46;1277.18;;;999.90;;
21213;SDS011;10764;50.850;2.904;2024-02-15T06:34:32;1272.82;;;999.90;;
21213;SDS011;10764;50.850;2.904;2024-02-15T06:37:37;1273.45;;;999.90;;
21213;SDS011;10764;50.850;2.904;2024-02-15T06:40:23;1278.32;;;999.90;;
21213;SDS011;10764;50.850;2.904;2024-02-15T06:42:51;1281.78;;;999.90;;
21213;SDS011;10764;50.850;2.904;2024-02-15T06:45:18;1275.90;;;999.90;;
21213;SDS011;10764;50.850;2.904;2024-02-15T06:47:46;1282.60;;;999.90;;
21213;SDS011;10764;50.850;2.904;2024-02-15T06:50:14;1280.73;;;999.90;;
21213;SDS011;10764;50.850;2.904;2024-02-15T06:52:41;1286.68;;;999.90;;
21213;SDS011;10764;50.850;2.904;2024-02-15T06:55:09;1292.97;;;999.90;;
21213;SDS011;10764;50.850;2.904;2024-02-15T06:57:38;1291.43;;;999.90;;
21213;SDS011;10764;50.850;2.904;2024-02-15T07:00:09;1291.97;;;999.90;;
21213;SDS011;10764;50.850;2.904;2024-02-15T07:02:41;1289.10;;;999.90;;
21213;SDS011;10764;50.850;2.904;2024-02-15T07:05:11;1280.43;;;999.90;;
21213;SDS011;10764;50.850;2.904;2024-02-15T07:07:39;1282.60;;;999.90;;
21213;SDS011;10764;50.850;2.904;2024-02-15T07:10:09;1279.57;;;999.90;;
21213;SDS011;10764;50.850;2.904;2024-02-15T07:12:36;1285.53;;;999.90;;
21213;SDS011;10764;50.850;2.904;2024-02-15T07:15:04;1287.43;;;999.90;;
21213;SDS011;10764;50.850;2.904;2024-02-15T07:17:36;1296.78;;;999.90;;
21213;SDS011;10764;50.850;2.904;2024-02-15T07:20:03;1309.22;;;999.90;;
21213;SDS011;10764;50.850;2.904;2024-02-15T07:22:31;1281.70;;;999.90;;
21213;SDS011;10764;50.850;2.904;2024-02-15T07:24:58;1278.70;;;999.90;;
21213;SDS011;10764;50.850;2.904;2024-02-15T07:27:26;1270.60;;;999.90;;
21213;SDS011;10764;50.850;2.904;2024-02-15T07:29:54;1270.18;;;999.90;;
21213;SDS011;10764;50.850;2.904;2024-02-15T07:32:23;1270.63;;;999.90;;
21213;SDS011;10764;50.850;2.904;2024-02-15T07:34:50;1274.15;;;999.90;;
21213;SDS011;10764;50.850;2.904;2024-02-15T07:37:18;1270.15;;;999.90;;
21213;SDS011;10764;50.850;2.904;2024-02-15T07:39:45;1275.72;;;999.90;;
21213;SDS011;10764;50.850;2.904;2024-02-15T07:42:13;1267.20;;;999.90;;
21213;SDS011;10764;50.850;2.904;2024-02-15T07:44:40;1269.43;;;999.90;;
21213;SDS011;10764;50.850;2.904;2024-02-15T07:47:09;1271.45;;;999.90;;
21213;SDS011;10764;50.850;2.904;2024-02-15T07:49:36;1280.45;;;999.90;;
21213;SDS011;10764;50.850;2.904;2024-02-15T07:52:04;1290.50;;;999.90;;
21213;SDS011;10764;50.850;2.904;2024-02-15T07:54:31;1284.60;;;999.90;;
21213;SDS011;10764;50.850;2.904;2024-02-15T07:56:59;1294.10;;;999.90;;
21213;SDS011;10764;50.850;2.904;2024-02-15T07:59:27;1293.83;;;999.90;;
21213;SDS011;10764;50.850;2.904;2024-02-15T08:01:55;1288.57;;;999.90;;
21213;SDS011;10764;50.850;2.904;2024-02-15T08:04:22;1294.55;;;999.90;;
21213;SDS011;10764;50.850;2.904;2024-02-15T08:06:51;1281.10;;;999.90;;
21213;SDS011;10764;50.850;2.904;2024-02-15T08:09:22;1361.43;;;999.90;;
21213;SDS011;10764;50.850;2.904;2024-02-15T08:11:51;1270.85;;;999.90;;
21213;SDS011;10764;50.850;2.904;2024-02-15T08:14:18;1303.57;;;999.90;;
21213;SDS011;10764;50.850;2.904;2024-02-15T08:16:47;1301.82;;;999.90;;
21213;SDS011;10764;50.850;2.904;2024-02-15T08:19:14;1318.38;;;999.90;;
21213;SDS011;10764;50.850;2.904;2024-02-15T08:21:42;1388.45;;;999.90;;
21213;SDS011;10764;50.850;2.904;2024-02-15T08:24:13;1328.82;;;999.90;;
21213;SDS011;10764;50.850;2.904;2024-02-15T08:26:41;1399.13;;;999.90;;
21213;SDS011;10764;50.850;2.904;2024-02-15T08:29:08;1264.03;;;999.90;;
21213;SDS011;10764;50.850;2.904;2024-02-15T08:31:36;1303.95;;;999.90;;
21213;SDS011;10764;50.850;2.904;2024-02-15T08:34:03;1302.10;;;999.90;;
21213;SDS011;10764;50.850;2.904;2024-02-15T08:36:32;1286.35;;;999.90;;
21213;SDS011;10764;50.850;2.904;2024-02-15T08:39:00;1293.27;;;999.90;;
21213;SDS011;10764;50.850;2.904;2024-02-15T08:41:27;1270.22;;;999.90;;
21213;SDS011;10764;50.850;2.904;2024-02-15T08:43:55;1280.30;;;999.90;;
21213;SDS011;10764;50.850;2.904;2024-02-15T08:46:27;1276.13;;;999.90;;
21213;SDS011;10764;50.850;2.904;2024-02-15T08:48:55;1288.35;;;999.90;;
21213;SDS011;10764;50.850;2.904;2024-02-15T08:51:22;1274.30;;;999.90;;
21213;SDS011;10764;50.850;2.904;2024-02-15T08:53:51;1340.05;;;999.90;;
21213;SDS011;10764;50.850;2.904;2024-02-15T08:56:18;1296.13;;;999.90;;
21213;SDS011;10764;50.850;2.904;2024-02-15T08:58:46;1385.68;;;999.90;;
21213;SDS011;10764;50.850;2.904;2024-02-15T09:01:14;1345.47;;;999.90;;
21213;SDS011;10764;50.850;2.904;2024-02-15T09:03:41;1399.50;;;999.90;;
21213;SDS011;10764;50.850;2.904;2024-02-15T09:06:09;1268.00;;;999.90;;
21213;SDS011;10764;50.850;2.904;2024-02-15T09:08:37;1249.35;;;992.53;;
21213;SDS011;10764;50.850;2.904;2024-02-15T09:11:04;1257.22;;;999.90;;
21213;SDS011;10764;50.850;2.904;2024-02-15T09:13:33;1239.65;;;999.90;;
21213;SDS011;10764;50.850;2.904;2024-02-15T09:16:04;1250.13;;;999.90;;
21213;SDS011;10764;50.850;2.904;2024-02-15T09:18:31;1233.38;;;999.90;;
21213;SDS011;10764;50.850;2.904;2024-02-15T09:21:00;1238.00;;;999.90;;
21213;SDS011;10764;50.850;2.904;2024-02-15T09:23:27;1243.18;;;999.90;;
21213;SDS011;10764;50.850;2.904;2024-02-15T09:25:55;1244.38;;;999.90;;
21213;SDS011;10764;50.850;2.904;2024-02-15T09:28:22;1242.97;;;999.90;;
21213;SDS011;10764;50.850;2.904;2024-02-15T09:30:50;1254.97;;;999.90;;
21213;SDS011;10764;50.850;2.904;2024-02-15T09:33:21;1312.68;;;999.90;;
21213;SDS011;10764;50.850;2.904;2024-02-15T09:35:48;1234.55;;;999.90;;
21213;SDS011;10764;50.850;2.904;2024-02-15T09:38:16;1224.70;;;999.90;;
21213;SDS011;10764;50.850;2.904;2024-02-15T09:40:48;1217.97;;;999.90;;
21213;SDS011;10764;50.850;2.904;2024-02-15T09:43:15;1217.63;;;999.90;;
21213;SDS011;10764;50.850;2.904;2024-02-15T09:45:43;1265.18;;;999.90;;
21213;SDS011;10764;50.850;2.904;2024-02-15T09:48:10;1254.63;;;999.90;;
21213;SDS011;10764;50.850;2.904;2024-02-15T09:50:41;1243.22;;;999.90;;
21213;SDS011;10764;50.850;2.904;2024-02-15T09:53:09;1259.40;;;999.90;;
21213;SDS011;10764;50.850;2.904;2024-02-15T09:55:40;1245.32;;;999.90;;
21213;SDS011;10764;50.850;2.904;2024-02-15T09:58:08;1243.38;;;999.90;;
21213;SDS011;10764;50.850;2.904;2024-02-15T10:00:36;1243.35;;;999.90;;
21213;SDS011;10764;50.850;2.904;2024-02-15T10:03:05;1242.38;;;999.90;;
21213;SDS011;10764;50.850;2.904;2024-02-15T10:05:34;1246.65;;;999.90;;
21213;SDS011;10764;50.850;2.904;2024-02-15T10:08:02;1238.78;;;999.90;;
21213;SDS011;10764;50.850;2.904;2024-02-15T10:10:30;1239.40;;;999.90;;
21213;SDS011;10764;50.850;2.904;2024-02-15T10:13:00;1229.43;;;999.90;;
21213;SDS011;10764;50.850;2.904;2024-02-15T10:18:06;1244.53;;;999.90;;
21213;SDS011;10764;50.850;2.904;2024-02-15T10:20:36;1243.78;;;999.90;;
21213;SDS011;10764;50.850;2.904;2024-02-15T10:25:35;1248.63;;;999.90;;
21213;SDS011;10764;50.850;2.904;2024-02-15T10:28:03;1245.95;;;999.90;;
21213;SDS011;10764;50.850;2.904;2024-02-15T10:33:30;1248.85;;;999.90;;
21213;SDS011;10764;50.850;2.904;2024-02-15T10:36:07;1245.25;;;999.90;;
21213;SDS011;10764;50.850;2.904;2024-02-15T10:38:35;1248.30;;;999.90;;
21213;SDS011;10764;50.850;2.904;2024-02-15T10:41:03;1248.75;;;999.90;;
21213;SDS011;10764;50.850;2.904;2024-02-15T10:43:33;1246.68;;;999.90;;
21213;SDS011;10764;50.850;2.904;2024-02-15T10:46:00;1250.63;;;999.90;;
21213;SDS011;10764;50.850;2.904;2024-02-15T10:48:29;1250.20;;;999.90;;
21213;SDS011;10764;50.850;2.904;2024-02-15T10:50:58;1248.27;;;999.90;;
21213;SDS011;10764;50.850;2.904;2024-02-15T10:53:27;1257.17;;;999.90;;
21213;SDS011;10764;50.850;2.904;2024-02-15T10:58:33;1252.82;;;999.90;;
21213;SDS011;10764;50.850;2.904;2024-02-15T11:01:02;1247.78;;;999.90;;
21213;SDS011;10764;50.850;2.904;2024-02-15T11:03:39;1252.07;;;999.90;;
21213;SDS011;10764;50.850;2.904;2024-02-15T11:06:08;1253.78;;;999.90;;
21213;SDS011;10764;50.850;2.904;2024-02-15T11:08:37;1254.95;;;999.90;;
21213;SDS011;10764;50.850;2.904;2024-02-15T11:11:05;1251.03;;;999.90;;
21213;SDS011;10764;50.850;2.904;2024-02-15T11:13:33;1254.28;;;999.90;;
21213;SDS011;10764;50.850;2.904;2024-02-15T11:16:00;1256.20;;;999.90;;
21213;SDS011;10764;50.850;2.904;2024-02-15T11:18:45;1261.22;;;999.90;;
21213;SDS011;10764;50.850;2.904;2024-02-15T11:24:27;1258.15;;;999.90;;
21213;SDS011;10764;50.850;2.904;2024-02-15T11:26:59;1264.18;;;999.90;;
21213;SDS011;10764;50.850;2.904;2024-02-15T11:29:51;1256.55;;;999.90;;
21213;SDS011;10764;50.850;2.904;2024-02-15T11:35:07;1260.03;;;999.90;;
21213;SDS011;10764;50.850;2.904;2024-02-15T11:40:15;1252.70;;;999.90;;
21213;SDS011;10764;50.850;2.904;2024-02-15T11:45:26;1257.60;;;999.90;;
21213;SDS011;10764;50.850;2.904;2024-02-15T11:48:00;1255.13;;;999.90;;
21213;SDS011;10764;50.850;2.904;2024-02-15T11:50:28;1255.32;;;999.90;;
21213;SDS011;10764;50.850;2.904;2024-02-15T11:53:04;1254.05;;;999.90;;
21213;SDS011;10764;50.850;2.904;2024-02-15T11:55:39;1256.17;;;999.90;;
21213;SDS011;10764;50.850;2.904;2024-02-15T11:58:08;1255.93;;;999.90;;
21213;SDS011;10764;50.850;2.904;2024-02-15T12:00:37;1260.07;;;999.90;;
21213;SDS011;10764;50.850;2.904;2024-02-15T12:03:24;1260.10;;;999.90;;
21213;SDS011;10764;50.850;2.904;2024-02-15T12:06:28;1257.97;;;999.90;;
21213;SDS011;10764;50.850;2.904;2024-02-15T12:09:20;1258.78;;;999.90;;
21213;SDS011;10764;50.850;2.904;2024-02-15T12:12:09;1254.28;;;999.90;;
21213;SDS011;10764;50.850;2.904;2024-02-15T12:14:59;1258.47;;;999.90;;
21213;SDS011;10764;50.850;2.904;2024-02-15T12:17:46;1255.60;;;999.90;;
21213;SDS011;10764;50.850;2.904;2024-02-15T12:20:32;1256.47;;;999.90;;
21213;SDS011;10764;50.850;2.904;2024-02-15T12:23:00;1255.13;;;999.90;;
21213;SDS011;10764;50.850;2.904;2024-02-15T12:28:22;1256.63;;;999.90;;
21213;SDS011;10764;50.850;2.904;2024-02-15T12:30:54;1254.88;;;999.90;;
21213;SDS011;10764;50.850;2.904;2024-02-15T12:33:22;1255.55;;;999.90;;
21213;SDS011;10764;50.850;2.904;2024-02-15T12:35:50;1256.60;;;999.90;;
21213;SDS011;10764;50.850;2.904;2024-02-15T12:38:17;1253.22;;;999.90;;
21213;SDS011;10764;50.850;2.904;2024-02-15T12:40:45;1254.63;;;999.90;;
21213;SDS011;10764;50.850;2.904;2024-02-15T12:43:14;1257.45;;;999.90;;
21213;SDS011;10764;50.850;2.904;2024-02-15T12:45:42;1257.63;;;999.90;;
21213;SDS011;10764;50.850;2.904;2024-02-15T12:48:10;1260.20;;;999.90;;
21213;SDS011;10764;50.850;2.904;2024-02-15T12:50:38;1258.55;;;999.90;;
21213;SDS011;10764;50.850;2.904;2024-02-15T12:53:06;1255.78;;;999.90;;
21213;SDS011;10764;50.850;2.904;2024-02-15T12:55:35;1255.05;;;999.90;;
21213;SDS011;10764;50.850;2.904;2024-02-15T12:58:04;1257.15;;;999.90;;
21213;SDS011;10764;50.850;2.904;2024-02-15T13:00:35;1255.95;;;999.90;;
21213;SDS011;10764;50.850;2.904;2024-02-15T13:03:07;1255.73;;;999.90;;
21213;SDS011;10764;50.850;2.904;2024-02-15T13:05:38;1252.38;;;999.90;;
21213;SDS011;10764;50.850;2.904;2024-02-15T13:08:07;1254.65;;;999.90;;
21213;SDS011;10764;50.850;2.904;2024-02-15T13:10:41;1243.77;;;999.90;;
21213;SDS011;10764;50.850;2.904;2024-02-15T13:13:08;1252.80;;;999.90;;
21213;SDS011;10764;50.850;2.904;2024-02-15T13:15:37;1254.22;;;999.90;;
21213;SDS011;10764;50.850;2.904;2024-02-15T13:18:05;1254.40;;;999.90;;
21213;SDS011;10764;50.850;2.904;2024-02-15T13:20:38;1253.07;;;999.90;;
21213;SDS011;10764;50.850;2.904;2024-02-15T13:23:06;1254.07;;;999.90;;
21213;SDS011;10764;50.850;2.904;2024-02-15T13:25:49;1251.93;;;999.90;;
21213;SDS011;10764;50.850;2.904;2024-02-15T13:28:20;1252.28;;;999.90;;
21213;SDS011;10764;50.850;2.904;2024-02-15T13:30:47;1258.23;;;999.90;;
21213;SDS011;10764;50.850;2.904;2024-02-15T13:33:20;1255.95;;;999.90;;
21213;SDS011;10764;50.850;2.904;2024-02-15T13:35:48;1254.05;;;999.90;;
21213;SDS011;10764;50.850;2.904;2024-02-15T13:38:16;1255.60;;;999.90;;
21213;SDS011;10764;50.850;2.904;2024-02-15T13:40:50;1259.93;;;999.90;;
21213;SDS011;10764;50.850;2.904;2024-02-15T13:43:18;1258.30;;;999.90;;
21213;SDS011;10764;50.850;2.904;2024-02-15T13:45:45;1256.15;;;999.90;;
21213;SDS011;10764;50.850;2.904;2024-02-15T13:48:14;1257.13;;;999.90;;
21213;SDS011;10764;50.850;2.904;2024-02-15T13:50:42;1256.95;;;999.90;;
21213;SDS011;10764;50.850;2.904;2024-02-15T13:53:11;1255.57;;;999.90;;
21213;SDS011;10764;50.850;2.904;2024-02-15T13:55:40;1256.10;;;999.90;;
21213;SDS011;10764;50.850;2.904;2024-02-15T13:58:08;1254.70;;;999.90;;
21213;SDS011;10764;50.850;2.904;2024-02-15T14:00:39;1259.82;;;999.90;;
21213;SDS011;10764;50.850;2.904;2024-02-15T14:03:10;1258.40;;;999.90;;
21213;SDS011;10764;50.850;2.904;2024-02-15T14:05:37;1261.50;;;999.90;;
21213;SDS011;10764;50.850;2.904;2024-02-15T14:08:08;1256.10;;;999.90;;
21213;SDS011;10764;50.850;2.904;2024-02-15T14:10:38;1254.87;;;999.90;;
21213;SDS011;10764;50.850;2.904;2024-02-15T14:13:05;1254.93;;;999.90;;
21213;SDS011;10764;50.850;2.904;2024-02-15T14:15:35;1255.90;;;999.90;;
21213;SDS011;10764;50.850;2.904;2024-02-15T14:18:09;1256.57;;;999.90;;
21213;SDS011;10764;50.850;2.904;2024-02-15T14:20:41;1257.72;;;999.90;;